sensor_id;sensor_type;location;lat;lon;timestamp;temperature;humidity
8939;DHT22;4504;48.810;9.172;2023-08-21T00:00:13;26.30;99.90
8939;DHT22;4504;48.810;9.172;2023-08-21T00:02:40;26.30;99.90
8939;DHT22;4504;48.810;9.172;2023-08-21T00:05:08;26.20;99.90
8939;DHT22;4504;48.810;9.172;2023-08-21T00:07:35;26.10;99.90
8939;DHT22;4504;48.810;9.172;2023-08-21T00:10:03;26.00;99.90
8939;DHT22;4504;48.810;9.172;2023-08-21T00:12:30;25.90;99.90
8939;DHT22;4504;48.810;9.172;2023-08-21T00:14:57;25.90;99.90
8939;DHT22;4504;48.810;9.172;2023-08-21T00:17:24;25.90;99.90
8939;DHT22;4504;48.810;9.172;2023-08-21T00:19:51;25.90;99.90
8939;DHT22;4504;48.810;9.172;2023-08-21T00:22:19;25.80;99.90
8939;DHT22;4504;48.810;9.172;2023-08-21T00:24:46;25.90;99.90
8939;DHT22;4504;48.810;9.172;2023-08-21T00:27:13;25.80;99.90
8939;DHT22;4504;48.810;9.172;2023-08-21T00:29:40;25.70;99.90
8939;DHT22;4504;48.810;9.172;2023-08-21T00:32:07;25.70;99.90
8939;DHT22;4504;48.810;9.172;2023-08-21T00:34:34;25.70;99.90
8939;DHT22;4504;48.810;9.172;2023-08-21T00:37:01;25.60;99.90
8939;DHT22;4504;48.810;9.172;2023-08-21T00:39:30;25.60;99.90
8939;DHT22;4504;48.810;9.172;2023-08-21T00:41:57;25.50;99.90
8939;DHT22;4504;48.810;9.172;2023-08-21T00:44:25;25.50;99.90
8939;DHT22;4504;48.810;9.172;2023-08-21T00:46:52;25.50;99.90
8939;DHT22;4504;48.810;9.172;2023-08-21T00:49:19;25.60;99.90
8939;DHT22;4504;48.810;9.172;2023-08-21T00:51:47;25.60;99.90
8939;DHT22;4504;48.810;9.172;2023-08-21T00:54:15;25.50;99.90
8939;DHT22;4504;48.810;9.172;2023-08-21T00:56:44;25.50;99.90
8939;DHT22;4504;48.810;9.172;2023-08-21T00:59:11;25.50;99.90
8939;DHT22;4504;48.810;9.172;2023-08-21T01:01:39;25.50;99.90
8939;DHT22;4504;48.810;9.172;2023-08-21T01:04:06;25.50;99.90
8939;DHT22;4504;48.810;9.172;2023-08-21T01:06:36;25.60;99.90
8939;DHT22;4504;48.810;9.172;2023-08-21T01:09:08;25.60;99.90
8939;DHT22;4504;48.810;9.172;2023-08-21T01:11:42;25.60;99.90
8939;DHT22;4504;48.810;9.172;2023-08-21T01:14:17;25.50;99.90
8939;DHT22;4504;48.810;9.172;2023-08-21T01:16:53;25.40;99.90
8939;DHT22;4504;48.810;9.172;2023-08-21T01:19:36;25.40;99.90
8939;DHT22;4504;48.810;9.172;2023-08-21T01:22:03;25.40;99.90
8939;DHT22;4504;48.810;9.172;2023-08-21T01:24:31;25.30;99.90
8939;DHT22;4504;48.810;9.172;2023-08-21T01:26:59;25.30;99.90
8939;DHT22;4504;48.810;9.172;2023-08-21T01:29:27;25.10;99.90
8939;DHT22;4504;48.810;9.172;2023-08-21T01:32:01;25.00;99.90
8939;DHT22;4504;48.810;9.172;2023-08-21T01:34:29;24.90;99.90
8939;DHT22;4504;48.810;9.172;2023-08-21T01:36:59;24.90;99.90
8939;DHT22;4504;48.810;9.172;2023-08-21T01:39:26;24.90;99.90
8939;DHT22;4504;48.810;9.172;2023-08-21T01:41:56;24.90;99.90
8939;DHT22;4504;48.810;9.172;2023-08-21T01:44:23;24.80;99.90
8939;DHT22;4504;48.810;9.172;2023-08-21T01:46:52;24.70;99.90
8939;DHT22;4504;48.810;9.172;2023-08-21T01:49:19;24.60;99.90
8939;DHT22;4504;48.810;9.172;2023-08-21T01:51:46;24.60;99.90
8939;DHT22;4504;48.810;9.172;2023-08-21T01:54:13;24.50;99.90
8939;DHT22;4504;48.810;9.172;2023-08-21T01:56:40;24.50;99.90
8939;DHT22;4504;48.810;9.172;2023-08-21T01:59:08;24.50;99.90
8939;DHT22;4504;48.810;9.172;2023-08-21T02:01:35;24.50;99.90
8939;DHT22;4504;48.810;9.172;2023-08-21T02:04:02;24.50;99.90
8939;DHT22;4504;48.810;9.172;2023-08-21T02:06:29;24.50;99.90
8939;DHT22;4504;48.810;9.172;2023-08-21T02:08:56;24.50;99.90
8939;DHT22;4504;48.810;9.172;2023-08-21T02:11:23;24.50;99.90
8939;DHT22;4504;48.810;9.172;2023-08-21T02:13:51;24.50;99.90
8939;DHT22;4504;48.810;9.172;2023-08-21T02:16:20;24.40;99.90
8939;DHT22;4504;48.810;9.172;2023-08-21T02:18:47;24.40;99.90
8939;DHT22;4504;48.810;9.172;2023-08-21T02:21:14;24.40;99.90
8939;DHT22;4504;48.810;9.172;2023-08-21T02:23:41;24.40;99.90
8939;DHT22;4504;48.810;9.172;2023-08-21T02:26:10;24.40;99.90
8939;DHT22;4504;48.810;9.172;2023-08-21T02:28:39;24.40;99.90
8939;DHT22;4504;48.810;9.172;2023-08-21T02:31:09;24.40;99.90
8939;DHT22;4504;48.810;9.172;2023-08-21T02:33:37;24.40;99.90
8939;DHT22;4504;48.810;9.172;2023-08-21T02:36:05;24.40;99.90
8939;DHT22;4504;48.810;9.172;2023-08-21T02:38:33;24.30;99.90
8939;DHT22;4504;48.810;9.172;2023-08-21T02:41:00;24.30;99.90
8939;DHT22;4504;48.810;9.172;2023-08-21T02:43:27;24.20;99.90
8939;DHT22;4504;48.810;9.172;2023-08-21T02:45:54;24.10;99.90
8939;DHT22;4504;48.810;9.172;2023-08-21T02:48:21;24.20;99.90
8939;DHT22;4504;48.810;9.172;2023-08-21T02:50:50;24.20;99.90
8939;DHT22;4504;48.810;9.172;2023-08-21T02:53:17;24.20;99.90
8939;DHT22;4504;48.810;9.172;2023-08-21T02:55:43;24.20;99.90
8939;DHT22;4504;48.810;9.172;2023-08-21T02:58:12;24.20;99.90
8939;DHT22;4504;48.810;9.172;2023-08-21T03:00:40;24.20;99.90
8939;DHT22;4504;48.810;9.172;2023-08-21T03:03:07;24.20;99.90
8939;DHT22;4504;48.810;9.172;2023-08-21T03:05:34;24.00;99.90
8939;DHT22;4504;48.810;9.172;2023-08-21T03:08:03;24.00;99.90
8939;DHT22;4504;48.810;9.172;2023-08-21T03:10:30;24.00;99.90
8939;DHT22;4504;48.810;9.172;2023-08-21T03:13:00;24.00;99.90
8939;DHT22;4504;48.810;9.172;2023-08-21T03:15:27;24.00;99.90
8939;DHT22;4504;48.810;9.172;2023-08-21T03:17:54;24.00;99.90
8939;DHT22;4504;48.810;9.172;2023-08-21T03:20:21;23.90;99.90
8939;DHT22;4504;48.810;9.172;2023-08-21T03:22:48;23.90;99.90
8939;DHT22;4504;48.810;9.172;2023-08-21T03:25:18;23.90;99.90
8939;DHT22;4504;48.810;9.172;2023-08-21T03:27:45;23.90;99.90
8939;DHT22;4504;48.810;9.172;2023-08-21T03:30:15;23.80;99.90
8939;DHT22;4504;48.810;9.172;2023-08-21T03:32:42;23.70;99.90
8939;DHT22;4504;48.810;9.172;2023-08-21T03:35:10;23.70;99.90
8939;DHT22;4504;48.810;9.172;2023-08-21T03:37:37;23.60;99.90
8939;DHT22;4504;48.810;9.172;2023-08-21T03:40:07;23.60;99.90
8939;DHT22;4504;48.810;9.172;2023-08-21T03:42:36;23.50;99.90
8939;DHT22;4504;48.810;9.172;2023-08-21T03:45:04;23.50;99.90
8939;DHT22;4504;48.810;9.172;2023-08-21T03:47:31;23.50;99.90
8939;DHT22;4504;48.810;9.172;2023-08-21T03:50:03;23.50;99.90
8939;DHT22;4504;48.810;9.172;2023-08-21T03:52:30;23.50;99.90
8939;DHT22;4504;48.810;9.172;2023-08-21T03:54:57;23.50;99.90
8939;DHT22;4504;48.810;9.172;2023-08-21T03:57:24;23.40;99.90
8939;DHT22;4504;48.810;9.172;2023-08-21T03:59:52;23.40;99.90
8939;DHT22;4504;48.810;9.172;2023-08-21T04:02:19;23.40;99.90
8939;DHT22;4504;48.810;9.172;2023-08-21T04:04:46;23.20;99.90
8939;DHT22;4504;48.810;9.172;2023-08-21T04:07:13;23.20;99.90
8939;DHT22;4504;48.810;9.172;2023-08-21T04:09:41;23.00;99.90
8939;DHT22;4504;48.810;9.172;2023-08-21T04:12:09;23.10;99.90
8939;DHT22;4504;48.810;9.172;2023-08-21T04:14:36;23.00;99.90
8939;DHT22;4504;48.810;9.172;2023-08-21T04:17:04;23.00;99.90
8939;DHT22;4504;48.810;9.172;2023-08-21T04:19:31;23.00;99.90
8939;DHT22;4504;48.810;9.172;2023-08-21T04:22:01;23.00;99.90
8939;DHT22;4504;48.810;9.172;2023-08-21T04:24:28;23.00;99.90
8939;DHT22;4504;48.810;9.172;2023-08-21T04:26:55;23.10;99.90
8939;DHT22;4504;48.810;9.172;2023-08-21T04:29:22;23.20;99.90
8939;DHT22;4504;48.810;9.172;2023-08-21T04:31:49;23.30;99.90
8939;DHT22;4504;48.810;9.172;2023-08-21T04:34:17;23.30;99.90
8939;DHT22;4504;48.810;9.172;2023-08-21T04:36:44;23.30;99.90
8939;DHT22;4504;48.810;9.172;2023-08-21T04:39:12;23.30;99.90
8939;DHT22;4504;48.810;9.172;2023-08-21T04:41:39;23.30;99.90
8939;DHT22;4504;48.810;9.172;2023-08-21T04:44:06;23.20;99.90
8939;DHT22;4504;48.810;9.172;2023-08-21T04:46:33;23.10;99.90
8939;DHT22;4504;48.810;9.172;2023-08-21T04:49:00;23.00;99.90
8939;DHT22;4504;48.810;9.172;2023-08-21T04:51:29;23.00;99.90
8939;DHT22;4504;48.810;9.172;2023-08-21T04:53:58;22.90;99.90
8939;DHT22;4504;48.810;9.172;2023-08-21T04:56:26;22.90;99.90
8939;DHT22;4504;48.810;9.172;2023-08-21T04:58:54;22.90;99.90
8939;DHT22;4504;48.810;9.172;2023-08-21T05:01:24;22.90;99.90
8939;DHT22;4504;48.810;9.172;2023-08-21T05:03:51;22.90;99.90
8939;DHT22;4504;48.810;9.172;2023-08-21T05:06:19;22.90;99.90
8939;DHT22;4504;48.810;9.172;2023-08-21T05:08:48;22.90;99.90
8939;DHT22;4504;48.810;9.172;2023-08-21T05:11:15;22.90;99.90
8939;DHT22;4504;48.810;9.172;2023-08-21T05:13:43;22.90;99.90
8939;DHT22;4504;48.810;9.172;2023-08-21T05:16:12;23.00;99.90
8939;DHT22;4504;48.810;9.172;2023-08-21T05:18:40;23.10;99.90
8939;DHT22;4504;48.810;9.172;2023-08-21T05:21:07;23.20;99.90
8939;DHT22;4504;48.810;9.172;2023-08-21T05:23:35;23.30;99.90
8939;DHT22;4504;48.810;9.172;2023-08-21T05:26:07;23.30;99.90
8939;DHT22;4504;48.810;9.172;2023-08-21T05:28:34;23.40;99.90
8939;DHT22;4504;48.810;9.172;2023-08-21T05:31:01;23.40;99.90
8939;DHT22;4504;48.810;9.172;2023-08-21T05:33:39;23.50;99.90
8939;DHT22;4504;48.810;9.172;2023-08-21T05:36:06;23.50;99.90
8939;DHT22;4504;48.810;9.172;2023-08-21T05:38:33;23.50;99.90
8939;DHT22;4504;48.810;9.172;2023-08-21T05:41:00;23.60;99.90
8939;DHT22;4504;48.810;9.172;2023-08-21T05:43:29;23.60;99.90
8939;DHT22;4504;48.810;9.172;2023-08-21T05:45:57;23.70;99.90
8939;DHT22;4504;48.810;9.172;2023-08-21T05:48:24;23.70;99.90
8939;DHT22;4504;48.810;9.172;2023-08-21T05:50:52;23.70;99.90
8939;DHT22;4504;48.810;9.172;2023-08-21T05:53:19;23.80;99.90
8939;DHT22;4504;48.810;9.172;2023-08-21T05:55:46;23.80;99.90
8939;DHT22;4504;48.810;9.172;2023-08-21T05:58:13;23.90;99.90
8939;DHT22;4504;48.810;9.172;2023-08-21T06:00:41;24.00;99.90
8939;DHT22;4504;48.810;9.172;2023-08-21T06:03:10;24.00;99.90
8939;DHT22;4504;48.810;9.172;2023-08-21T06:06:09;24.00;99.90
8939;DHT22;4504;48.810;9.172;2023-08-21T06:08:37;24.10;99.90
8939;DHT22;4504;48.810;9.172;2023-08-21T06:11:04;24.10;99.90
8939;DHT22;4504;48.810;9.172;2023-08-21T06:13:32;24.20;99.90
8939;DHT22;4504;48.810;9.172;2023-08-21T06:16:01;24.20;99.90
8939;DHT22;4504;48.810;9.172;2023-08-21T06:18:29;24.20;99.90
8939;DHT22;4504;48.810;9.172;2023-08-21T06:20:55;24.30;99.90
8939;DHT22;4504;48.810;9.172;2023-08-21T06:23:22;24.40;99.90
8939;DHT22;4504;48.810;9.172;2023-08-21T06:25:50;24.40;99.90
8939;DHT22;4504;48.810;9.172;2023-08-21T06:28:19;24.40;99.90
8939;DHT22;4504;48.810;9.172;2023-08-21T06:30:46;24.30;99.90
8939;DHT22;4504;48.810;9.172;2023-08-21T06:33:15;24.20;99.90
8939;DHT22;4504;48.810;9.172;2023-08-21T06:35:42;24.20;99.90
8939;DHT22;4504;48.810;9.172;2023-08-21T06:38:09;24.30;99.90
8939;DHT22;4504;48.810;9.172;2023-08-21T06:40:36;24.40;99.90
8939;DHT22;4504;48.810;9.172;2023-08-21T06:43:03;24.40;99.90
8939;DHT22;4504;48.810;9.172;2023-08-21T06:45:33;24.40;99.90
8939;DHT22;4504;48.810;9.172;2023-08-21T06:48:02;24.40;99.90
8939;DHT22;4504;48.810;9.172;2023-08-21T06:50:31;24.40;99.90
8939;DHT22;4504;48.810;9.172;2023-08-21T06:52:58;24.50;99.90
8939;DHT22;4504;48.810;9.172;2023-08-21T06:55:25;24.60;99.90
8939;DHT22;4504;48.810;9.172;2023-08-21T06:57:52;24.60;99.90
8939;DHT22;4504;48.810;9.172;2023-08-21T07:00:19;24.60;99.90
8939;DHT22;4504;48.810;9.172;2023-08-21T07:02:46;24.60;99.90
8939;DHT22;4504;48.810;9.172;2023-08-21T07:05:13;24.60;99.90
8939;DHT22;4504;48.810;9.172;2023-08-21T07:07:41;24.70;99.90
8939;DHT22;4504;48.810;9.172;2023-08-21T07:10:09;24.70;99.90
8939;DHT22;4504;48.810;9.172;2023-08-21T07:12:36;24.80;99.90
8939;DHT22;4504;48.810;9.172;2023-08-21T07:15:03;24.80;99.90
8939;DHT22;4504;48.810;9.172;2023-08-21T07:17:30;24.80;99.90
8939;DHT22;4504;48.810;9.172;2023-08-21T07:19:57;25.00;99.90
8939;DHT22;4504;48.810;9.172;2023-08-21T07:22:24;25.10;99.90
8939;DHT22;4504;48.810;9.172;2023-08-21T07:24:53;25.10;99.90
8939;DHT22;4504;48.810;9.172;2023-08-21T07:27:20;25.10;99.90
8939;DHT22;4504;48.810;9.172;2023-08-21T07:29:46;25.20;99.90
8939;DHT22;4504;48.810;9.172;2023-08-21T07:32:13;25.30;99.90
8939;DHT22;4504;48.810;9.172;2023-08-21T07:34:41;25.40;99.90
8939;DHT22;4504;48.810;9.172;2023-08-21T07:37:08;25.40;99.90
8939;DHT22;4504;48.810;9.172;2023-08-21T07:39:35;25.40;99.90
8939;DHT22;4504;48.810;9.172;2023-08-21T07:42:04;25.50;99.90
8939;DHT22;4504;48.810;9.172;2023-08-21T07:44:31;25.50;99.90
8939;DHT22;4504;48.810;9.172;2023-08-21T07:46:58;25.60;99.90
8939;DHT22;4504;48.810;9.172;2023-08-21T07:49:25;25.50;99.90
8939;DHT22;4504;48.810;9.172;2023-08-21T07:51:52;25.50;99.90
8939;DHT22;4504;48.810;9.172;2023-08-21T07:54:19;25.60;99.90
8939;DHT22;4504;48.810;9.172;2023-08-21T07:56:46;25.60;99.90
8939;DHT22;4504;48.810;9.172;2023-08-21T07:59:14;25.70;99.90
8939;DHT22;4504;48.810;9.172;2023-08-21T08:01:41;25.70;99.90
8939;DHT22;4504;48.810;9.172;2023-08-21T08:04:08;25.70;99.90
8939;DHT22;4504;48.810;9.172;2023-08-21T08:06:36;25.80;99.90
8939;DHT22;4504;48.810;9.172;2023-08-21T08:09:03;25.80;99.90
8939;DHT22;4504;48.810;9.172;2023-08-21T08:11:30;25.90;99.90
8939;DHT22;4504;48.810;9.172;2023-08-21T08:13:57;25.90;99.90
8939;DHT22;4504;48.810;9.172;2023-08-21T08:16:25;26.00;99.90
8939;DHT22;4504;48.810;9.172;2023-08-21T08:18:53;26.10;99.90
8939;DHT22;4504;48.810;9.172;2023-08-21T08:21:20;26.20;99.90
8939;DHT22;4504;48.810;9.172;2023-08-21T08:23:47;26.30;99.90
8939;DHT22;4504;48.810;9.172;2023-08-21T08:26:13;26.30;99.90
8939;DHT22;4504;48.810;9.172;2023-08-21T08:28:42;26.40;99.90
8939;DHT22;4504;48.810;9.172;2023-08-21T08:31:14;26.40;99.90
8939;DHT22;4504;48.810;9.172;2023-08-21T08:33:43;26.50;99.90
8939;DHT22;4504;48.810;9.172;2023-08-21T08:36:10;26.50;99.90
8939;DHT22;4504;48.810;9.172;2023-08-21T08:38:37;26.60;99.90
8939;DHT22;4504;48.810;9.172;2023-08-21T08:41:09;26.70;99.90
8939;DHT22;4504;48.810;9.172;2023-08-21T08:43:40;26.80;99.90
8939;DHT22;4504;48.810;9.172;2023-08-21T08:46:08;26.80;99.90
8939;DHT22;4504;48.810;9.172;2023-08-21T08:48:35;26.90;99.90
8939;DHT22;4504;48.810;9.172;2023-08-21T08:51:03;26.90;99.90
8939;DHT22;4504;48.810;9.172;2023-08-21T08:53:31;26.90;99.90
8939;DHT22;4504;48.810;9.172;2023-08-21T08:55:58;27.00;99.90
8939;DHT22;4504;48.810;9.172;2023-08-21T08:58:26;27.10;99.90
8939;DHT22;4504;48.810;9.172;2023-08-21T09:00:53;27.10;99.90
8939;DHT22;4504;48.810;9.172;2023-08-21T09:03:20;27.10;99.90
8939;DHT22;4504;48.810;9.172;2023-08-21T09:05:47;27.20;99.90
8939;DHT22;4504;48.810;9.172;2023-08-21T09:08:35;27.30;99.90
8939;DHT22;4504;48.810;9.172;2023-08-21T09:11:02;27.40;99.90
8939;DHT22;4504;48.810;9.172;2023-08-21T09:13:31;27.50;99.90
8939;DHT22;4504;48.810;9.172;2023-08-21T09:15:58;27.50;99.90
8939;DHT22;4504;48.810;9.172;2023-08-21T09:18:26;27.60;99.90
8939;DHT22;4504;48.810;9.172;2023-08-21T09:20:53;27.70;99.90
8939;DHT22;4504;48.810;9.172;2023-08-21T09:23:20;27.70;99.90
8939;DHT22;4504;48.810;9.172;2023-08-21T09:25:48;27.60;99.90
8939;DHT22;4504;48.810;9.172;2023-08-21T09:28:19;27.60;99.90
8939;DHT22;4504;48.810;9.172;2023-08-21T09:30:48;27.70;99.90
8939;DHT22;4504;48.810;9.172;2023-08-21T09:33:17;27.90;99.90
8939;DHT22;4504;48.810;9.172;2023-08-21T09:35:45;27.90;99.90
8939;DHT22;4504;48.810;9.172;2023-08-21T09:38:12;28.10;99.90
8939;DHT22;4504;48.810;9.172;2023-08-21T09:40:40;28.10;99.90
8939;DHT22;4504;48.810;9.172;2023-08-21T09:43:10;28.20;99.90
8939;DHT22;4504;48.810;9.172;2023-08-21T09:45:38;28.30;99.90
8939;DHT22;4504;48.810;9.172;2023-08-21T09:48:06;28.40;99.90
8939;DHT22;4504;48.810;9.172;2023-08-21T09:50:33;28.30;99.90
8939;DHT22;4504;48.810;9.172;2023-08-21T09:53:02;28.20;99.90
8939;DHT22;4504;48.810;9.172;2023-08-21T09:55:50;28.30;99.90
8939;DHT22;4504;48.810;9.172;2023-08-21T09:58:20;28.40;99.90
8939;DHT22;4504;48.810;9.172;2023-08-21T10:00:48;28.50;99.90
8939;DHT22;4504;48.810;9.172;2023-08-21T10:03:19;28.60;99.90
8939;DHT22;4504;48.810;9.172;2023-08-21T10:05:48;28.80;99.30
8939;DHT22;4504;48.810;9.172;2023-08-21T10:08:18;28.90;98.10
8939;DHT22;4504;48.810;9.172;2023-08-21T10:10:47;29.00;97.20
8939;DHT22;4504;48.810;9.172;2023-08-21T10:13:15;29.00;96.20
8939;DHT22;4504;48.810;9.172;2023-08-21T10:15:44;29.00;96.70
8939;DHT22;4504;48.810;9.172;2023-08-21T10:18:22;29.00;97.10
8939;DHT22;4504;48.810;9.172;2023-08-21T10:20:50;29.10;97.10
8939;DHT22;4504;48.810;9.172;2023-08-21T10:23:24;29.20;96.90
8939;DHT22;4504;48.810;9.172;2023-08-21T10:25:55;29.30;98.10
8939;DHT22;4504;48.810;9.172;2023-08-21T10:28:22;29.40;96.10
8939;DHT22;4504;48.810;9.172;2023-08-21T10:30:51;29.50;96.30
8939;DHT22;4504;48.810;9.172;2023-08-21T10:33:47;29.50;96.40
8939;DHT22;4504;48.810;9.172;2023-08-21T10:36:14;29.60;96.50
8939;DHT22;4504;48.810;9.172;2023-08-21T10:38:59;29.70;96.80
8939;DHT22;4504;48.810;9.172;2023-08-21T10:41:26;29.80;96.70
8939;DHT22;4504;48.810;9.172;2023-08-21T10:43:53;29.90;96.00
8939;DHT22;4504;48.810;9.172;2023-08-21T10:46:22;30.00;96.00
8939;DHT22;4504;48.810;9.172;2023-08-21T10:48:49;30.10;96.50
8939;DHT22;4504;48.810;9.172;2023-08-21T10:51:17;30.20;95.90
8939;DHT22;4504;48.810;9.172;2023-08-21T10:53:45;30.00;94.30
8939;DHT22;4504;48.810;9.172;2023-08-21T10:56:12;29.50;95.00
8939;DHT22;4504;48.810;9.172;2023-08-21T10:58:41;29.40;95.60
8939;DHT22;4504;48.810;9.172;2023-08-21T11:01:08;29.40;95.80
8939;DHT22;4504;48.810;9.172;2023-08-21T11:03:39;29.50;96.90
8939;DHT22;4504;48.810;9.172;2023-08-21T11:06:08;29.90;95.70
8939;DHT22;4504;48.810;9.172;2023-08-21T11:08:35;30.00;94.60
8939;DHT22;4504;48.810;9.172;2023-08-21T11:11:04;30.00;95.70
8939;DHT22;4504;48.810;9.172;2023-08-21T11:13:31;30.10;95.40
8939;DHT22;4504;48.810;9.172;2023-08-21T11:15:59;30.20;94.50
8939;DHT22;4504;48.810;9.172;2023-08-21T11:18:30;30.00;94.80
8939;DHT22;4504;48.810;9.172;2023-08-21T11:21:06;29.90;94.50
8939;DHT22;4504;48.810;9.172;2023-08-21T11:23:35;29.90;95.20
8939;DHT22;4504;48.810;9.172;2023-08-21T11:26:02;30.20;94.30
8939;DHT22;4504;48.810;9.172;2023-08-21T11:28:30;30.50;93.50
8939;DHT22;4504;48.810;9.172;2023-08-21T11:30:57;30.60;93.20
8939;DHT22;4504;48.810;9.172;2023-08-21T11:33:25;30.50;94.60
8939;DHT22;4504;48.810;9.172;2023-08-21T11:35:52;30.60;92.90
8939;DHT22;4504;48.810;9.172;2023-08-21T11:38:22;30.60;93.10
8939;DHT22;4504;48.810;9.172;2023-08-21T11:40:54;30.70;93.30
8939;DHT22;4504;48.810;9.172;2023-08-21T11:43:22;30.80;93.30
8939;DHT22;4504;48.810;9.172;2023-08-21T11:45:49;31.00;92.40
8939;DHT22;4504;48.810;9.172;2023-08-21T11:48:19;31.40;94.10
8939;DHT22;4504;48.810;9.172;2023-08-21T11:50:48;31.60;91.70
8939;DHT22;4504;48.810;9.172;2023-08-21T11:53:15;31.60;90.70
8939;DHT22;4504;48.810;9.172;2023-08-21T11:55:43;31.70;90.60
8939;DHT22;4504;48.810;9.172;2023-08-21T11:58:10;31.70;92.80
8939;DHT22;4504;48.810;9.172;2023-08-21T12:00:40;31.70;91.40
8939;DHT22;4504;48.810;9.172;2023-08-21T12:03:07;31.70;91.00
8939;DHT22;4504;48.810;9.172;2023-08-21T12:05:42;31.70;90.10
8939;DHT22;4504;48.810;9.172;2023-08-21T12:08:09;32.10;91.40
8939;DHT22;4504;48.810;9.172;2023-08-21T12:10:37;32.20;90.10
8939;DHT22;4504;48.810;9.172;2023-08-21T12:13:05;32.20;90.10
8939;DHT22;4504;48.810;9.172;2023-08-21T12:15:32;32.50;88.50
8939;DHT22;4504;48.810;9.172;2023-08-21T12:18:00;32.80;88.10
8939;DHT22;4504;48.810;9.172;2023-08-21T12:20:27;32.80;87.80
8939;DHT22;4504;48.810;9.172;2023-08-21T12:22:55;32.70;85.90
8939;DHT22;4504;48.810;9.172;2023-08-21T12:25:22;32.90;85.50
8939;DHT22;4504;48.810;9.172;2023-08-21T12:27:49;32.40;85.50
8939;DHT22;4504;48.810;9.172;2023-08-21T12:30:18;31.80;87.20
8939;DHT22;4504;48.810;9.172;2023-08-21T12:32:45;31.60;87.80
8939;DHT22;4504;48.810;9.172;2023-08-21T12:35:13;31.60;87.20
8939;DHT22;4504;48.810;9.172;2023-08-21T12:37:40;31.70;86.70
8939;DHT22;4504;48.810;9.172;2023-08-21T12:40:07;31.60;88.40
8939;DHT22;4504;48.810;9.172;2023-08-21T12:42:35;31.90;87.80
8939;DHT22;4504;48.810;9.172;2023-08-21T12:45:02;32.00;86.80
8939;DHT22;4504;48.810;9.172;2023-08-21T12:47:30;32.20;87.30
8939;DHT22;4504;48.810;9.172;2023-08-21T12:49:58;32.40;88.40
8939;DHT22;4504;48.810;9.172;2023-08-21T12:52:25;32.60;86.70
8939;DHT22;4504;48.810;9.172;2023-08-21T12:54:52;32.30;87.50
8939;DHT22;4504;48.810;9.172;2023-08-21T12:57:19;32.40;87.50
8939;DHT22;4504;48.810;9.172;2023-08-21T12:59:47;32.60;85.10
8939;DHT22;4504;48.810;9.172;2023-08-21T13:02:14;32.90;84.20
8939;DHT22;4504;48.810;9.172;2023-08-21T13:04:42;33.20;85.60
8939;DHT22;4504;48.810;9.172;2023-08-21T13:07:09;33.40;86.70
8939;DHT22;4504;48.810;9.172;2023-08-21T13:09:36;33.50;85.50
8939;DHT22;4504;48.810;9.172;2023-08-21T13:12:04;33.10;84.70
8939;DHT22;4504;48.810;9.172;2023-08-21T13:14:31;33.00;85.20
8939;DHT22;4504;48.810;9.172;2023-08-21T13:16:58;32.70;85.00
8939;DHT22;4504;48.810;9.172;2023-08-21T13:19:25;32.30;88.40
8939;DHT22;4504;48.810;9.172;2023-08-21T13:21:53;32.00;88.40
8939;DHT22;4504;48.810;9.172;2023-08-21T13:24:20;31.80;88.10
8939;DHT22;4504;48.810;9.172;2023-08-21T13:26:48;31.70;92.20
8939;DHT22;4504;48.810;9.172;2023-08-21T13:29:15;31.50;90.10
8939;DHT22;4504;48.810;9.172;2023-08-21T13:31:42;31.40;91.00
8939;DHT22;4504;48.810;9.172;2023-08-21T13:34:09;31.40;90.70
8939;DHT22;4504;48.810;9.172;2023-08-21T13:36:38;31.40;92.50
8939;DHT22;4504;48.810;9.172;2023-08-21T13:39:06;31.40;92.30
8939;DHT22;4504;48.810;9.172;2023-08-21T13:41:34;31.40;91.00
8939;DHT22;4504;48.810;9.172;2023-08-21T13:44:01;31.70;90.00
8939;DHT22;4504;48.810;9.172;2023-08-21T13:46:29;32.30;89.90
8939;DHT22;4504;48.810;9.172;2023-08-21T13:48:56;32.80;89.70
8939;DHT22;4504;48.810;9.172;2023-08-21T13:51:22;33.10;83.20
8939;DHT22;4504;48.810;9.172;2023-08-21T13:53:49;33.40;85.10
8939;DHT22;4504;48.810;9.172;2023-08-21T13:56:18;33.70;82.70
8939;DHT22;4504;48.810;9.172;2023-08-21T13:58:45;33.80;81.00
8939;DHT22;4504;48.810;9.172;2023-08-21T14:01:12;34.00;80.40
8939;DHT22;4504;48.810;9.172;2023-08-21T14:03:40;34.30;81.50
8939;DHT22;4504;48.810;9.172;2023-08-21T14:06:07;34.60;79.80
8939;DHT22;4504;48.810;9.172;2023-08-21T14:08:37;34.70;79.40
8939;DHT22;4504;48.810;9.172;2023-08-21T14:11:04;34.70;79.00
8939;DHT22;4504;48.810;9.172;2023-08-21T14:13:32;34.80;79.50
8939;DHT22;4504;48.810;9.172;2023-08-21T14:15:59;34.30;78.30
8939;DHT22;4504;48.810;9.172;2023-08-21T14:18:26;33.60;76.30
8939;DHT22;4504;48.810;9.172;2023-08-21T14:20:53;33.40;77.50
8939;DHT22;4504;48.810;9.172;2023-08-21T14:23:20;33.20;79.20
8939;DHT22;4504;48.810;9.172;2023-08-21T14:25:47;33.20;82.00
8939;DHT22;4504;48.810;9.172;2023-08-21T14:28:15;33.10;79.30
8939;DHT22;4504;48.810;9.172;2023-08-21T14:30:43;33.00;80.90
8939;DHT22;4504;48.810;9.172;2023-08-21T14:33:10;32.90;82.30
8939;DHT22;4504;48.810;9.172;2023-08-21T14:35:37;33.00;78.90
8939;DHT22;4504;48.810;9.172;2023-08-21T14:38:05;33.00;78.80
8939;DHT22;4504;48.810;9.172;2023-08-21T14:40:32;33.30;79.50
8939;DHT22;4504;48.810;9.172;2023-08-21T14:42:59;33.70;80.80
8939;DHT22;4504;48.810;9.172;2023-08-21T14:45:26;33.90;79.90
8939;DHT22;4504;48.810;9.172;2023-08-21T14:47:54;34.00;75.60
8939;DHT22;4504;48.810;9.172;2023-08-21T14:50:21;34.30;77.50
8939;DHT22;4504;48.810;9.172;2023-08-21T14:52:48;34.40;73.90
8939;DHT22;4504;48.810;9.172;2023-08-21T14:55:15;34.40;73.70
8939;DHT22;4504;48.810;9.172;2023-08-21T14:57:42;34.40;76.30
8939;DHT22;4504;48.810;9.172;2023-08-21T15:00:10;34.50;74.20
8939;DHT22;4504;48.810;9.172;2023-08-21T15:02:38;34.50;74.20
8939;DHT22;4504;48.810;9.172;2023-08-21T15:05:07;34.40;75.30
8939;DHT22;4504;48.810;9.172;2023-08-21T15:07:35;34.40;75.70
8939;DHT22;4504;48.810;9.172;2023-08-21T15:10:02;34.40;74.30
8939;DHT22;4504;48.810;9.172;2023-08-21T15:12:29;34.20;73.30
8939;DHT22;4504;48.810;9.172;2023-08-21T15:14:56;34.40;74.10
8939;DHT22;4504;48.810;9.172;2023-08-21T15:17:23;34.40;73.40
8939;DHT22;4504;48.810;9.172;2023-08-21T15:19:50;34.50;73.00
8939;DHT22;4504;48.810;9.172;2023-08-21T15:22:18;34.50;73.30
8939;DHT22;4504;48.810;9.172;2023-08-21T15:24:46;34.40;73.00
8939;DHT22;4504;48.810;9.172;2023-08-21T15:27:13;34.10;73.40
8939;DHT22;4504;48.810;9.172;2023-08-21T15:29:42;33.70;73.20
8939;DHT22;4504;48.810;9.172;2023-08-21T15:32:09;33.40;75.40
8939;DHT22;4504;48.810;9.172;2023-08-21T15:34:36;33.00;76.70
8939;DHT22;4504;48.810;9.172;2023-08-21T15:37:03;32.70;78.50
8939;DHT22;4504;48.810;9.172;2023-08-21T15:39:31;32.40;79.30
8939;DHT22;4504;48.810;9.172;2023-08-21T15:41:58;32.10;80.00
8939;DHT22;4504;48.810;9.172;2023-08-21T15:44:25;32.30;80.20
8939;DHT22;4504;48.810;9.172;2023-08-21T15:46:52;32.70;79.80
8939;DHT22;4504;48.810;9.172;2023-08-21T15:49:19;32.90;78.80
8939;DHT22;4504;48.810;9.172;2023-08-21T15:51:46;33.00;78.50
8939;DHT22;4504;48.810;9.172;2023-08-21T15:54:13;33.10;78.20
8939;DHT22;4504;48.810;9.172;2023-08-21T15:56:42;33.30;77.70
8939;DHT22;4504;48.810;9.172;2023-08-21T15:59:09;33.30;76.60
8939;DHT22;4504;48.810;9.172;2023-08-21T16:01:36;33.40;76.80
8939;DHT22;4504;48.810;9.172;2023-08-21T16:04:03;33.60;75.10
8939;DHT22;4504;48.810;9.172;2023-08-21T16:06:30;33.70;74.60